ADDS METAR Data INFO
IDs: Format: Raw Decoded Include TAF

Data at: 2337 UTC 25 Feb 2018

KSAT 252251Z 10009KT 10SM FEW035 FEW050 FEW250 21/12 A2995 RMK AO2 SLP127 T02060117